01:07
Airports
History
Links
Donate
Help keep this website running!
PayPal
Bitcoin
Information on this page is community maintained and may be outdated or inaccurate and is intended for reference only or PC simulator navigating.
Always use approved charts for navigating.
EDNE
Erbach
Erbach (EDNE)
Erbach, Baden-Wurttemberg, Germany (89155)
4
Lat/Lng:48° 20' 27.41" N / 9° 54' 54.79" E
48.340948 / 9.915219
Elevation:1558'ft 475mMSL
ID / ICAO:EDNE
Runways:1
Longest:(03-21) 643.7m 2,112ft Grass
Beacon:White-Green
Distance To
Airport ID:
Nearby VORs <50NM
Nearby NDBs
Nearby WeatherUpdated 05-23-17 00:20 GMT
Nearby weather at ETHL, LAUPHEIM located 8.2 nautical miles from EDNE
Altimeter: 30.06
Visibility: 6.2 statute miles
Wind: 1 knots (VRB°)
Temp: 12°c 54°f
Humidity: 87.6%

METAR: ETHL 230020Z VRB01KT 9999 FEW270 12/10 Q1018 BLU+

(Powered by phpweather)
Runway 03 / 21
Dimensions:643.7 x 50m 2112' x 164'ft
Surface:Grass
Edge Lights:Low intensity
Runway 03 [A]Runway 21 [B]
Heading:030°TH 210°TH
Lat:
Lng:
48° 20' 18.31"N
9° 54' 46.88"E
48° 20' 36.52"N
9° 55' 2.7"E
User Notes and Comments
Google Map
Nearby Airports
(C) LAUPHEIM 8.2 NM
ETHL (WX) S 181°
(U) Laichingen 16.6 NM
EDPJ NW 310°
(U) BIBERACH AN DER RISS 17.4 NM
EDMB SSW 203°
(C) Tannheim 24.4 NM
EDMT SSE 159°
(U) Giengen Brenz 24.5 NM
EDNG NE 34°
(U) MEMMINGEN ALLGAU 28.6 NM
EDJA SSE 148°
(U) Saulgau 28.6 NM
EDTU SW 221°
VFR Chart
Flight Planning at SkyVector.com